METAR Data
IDs: Format: Raw Decoded Include TAF

Data at: 1140 UTC 07 Oct 2022

KBWI 071054Z 23004KT 10SM CLR 13/09 A3002 RMK AO2 SLP164 T01280094
KBWI 070954Z 25005KT 10SM CLR 12/10 A3001 RMK AO2 SLP160 T01220100
KBWI 070854Z 25005KT 10SM CLR 12/10 A3000 RMK AO2 SLP156 T01220100 58000
KBWI 070754Z 26004KT 10SM FEW120 14/11 A3000 RMK AO2 SLP157 T01390106
KBWI 070654Z 25005KT 10SM FEW120 14/11 A3000 RMK AO2 SLP159 T01390106
KBWI 070554Z 26004KT 10SM FEW120 14/11 A3000 RMK AO2 SLP157 T01440111 10183 20133 58001
KBWI 070454Z 25003KT 10SM SCT120 15/12 A3000 RMK AO2 SLP158 T01500122 402610094
KBWI 070354Z 00000KT 10SM SCT120 SCT250 14/12 A3000 RMK AO2 SLP159 T01390122
KBWI 070254Z 23003KT 10SM SCT100 SCT250 14/13 A3000 RMK AO2 SLP158 T01440128 51006
KBWI 070154Z 00000KT 10SM FEW180 SCT250 15/14 A3000 RMK AO2 SLP157 T01500139
KBWI 070054Z 24003KT 10SM SCT180 BKN250 17/13 A2999 RMK AO2 SLP155 T01720133
KBWI 062354Z 23003KT 10SM SCT180 BKN250 18/13 A2998 RMK AO2 SLP152 T01780128 10261 20178 53007
KBWI 062254Z 26004KT 10SM FEW060 FEW140 SCT180 BKN250 21/13 A2997 RMK AO2 SLP149 ACC DSNT SW-NW T02060133
KBWI 062238Z 26004KT 10SM SCT180 BKN250 21/13 A2997 RMK AO2 T02060133
KBWI 062154Z 25003KT 10SM FEW180 BKN250 23/13 A2997 RMK AO2 SLP148 T02330133
KBWI 062054Z VRB03KT 10SM BKN250 26/11 A2996 RMK AO2 SLP145 T02560111 56007
KBWI 061954Z 24005KT 10SM FEW200 SCT250 26/09 A2996 RMK AO2 SLP145 T02560094
KBWI 061854Z 28003KT 10SM FEW250 25/10 A2997 RMK AO2 SLP147 T02500100
KBWI 061754Z VRB04KT 10SM SCT250 25/11 A2998 RMK AO2 SLP153 T02500106 10250 20117 58016
KBWI 061654Z 00000KT 10SM FEW120 SCT250 23/10 A3000 RMK AO2 SLP160 T02330100
KBWI 061554Z 00000KT 10SM BKN250 23/10 A3002 RMK AO2 SLP165 T02330100
KBWI 061454Z VRB04KT 10SM SCT250 21/11 A3003 RMK AO2 SLP168 T02110111 51007
KBWI 061354Z 28005KT 10SM SCT250 19/11 A3003 RMK AO2 SLP168 T01890111 $
KBWI 061254Z 26005KT 10SM BKN250 16/11 A3002 RMK AO2 SLP165 T01610111 $
KBWI 061154Z 26004KT 10SM FEW250 12/10 A3001 RMK AO2 SLP161 T01170100 10139 20094 51010 $
KBWI 061054Z 27004KT 10SM FEW250 11/09 A3000 RMK AO2 SLP158 T01110089 $
KBWI 060954Z 28005KT 10SM CLR 10/09 A2999 RMK AO2 SLP154 T01000089 $
KBWI 060854Z 28003KT 10SM CLR 11/09 A2998 RMK AO2 SLP150 T01060094 50000 $
KBWI 060754Z 27005KT 10SM FEW055 12/10 A2998 RMK AO2 SLP151 T01220100 $
KBWI 060654Z 00000KT 10SM FEW055 12/11 A2998 RMK AO2 SLP153 T01220106 $
KBWI 060554Z 27004KT 10SM FEW055 FEW250 14/11 A2998 RMK AO2 SLP150 T01390111 10156 20128 55000 $
KBWI 060454Z 28004KT 10SM SCT055 14/12 A2997 RMK AO2 SLP149 T01440122 401830106 $
KBWI 060354Z 26005KT 10SM BKN055 14/13 A2998 RMK AO2 SLP150 T01440128 $
KBWI 060254Z 25003KT 10SM SCT055 14/12 A2998 RMK AO2 SLP150 T01390122 51002 $
KBWI 060154Z 26004KT 10SM FEW070 14/12 A2997 RMK AO2 SLP149 T01440117 $
KBWI 060054Z 29003KT 10SM BKN070 15/12 A2998 RMK AO2 SLP152 T01500122 $
KBWI 052354Z 29003KT 10SM SCT035 SCT043 BKN100 15/13 A2997 RMK AO2 SLP148 T01500128 10183 20150 51008 $